createdAt,value
2022-12-19T00:02:20.169Z,16.23
2022-12-19T00:04:52.197Z,15.95
2022-12-19T00:07:24.200Z,17.77
2022-12-19T00:09:56.242Z,15.57
2022-12-19T00:12:28.155Z,15.32
2022-12-19T00:15:03.421Z,17.13
2022-12-19T00:17:35.375Z,16.55
2022-12-19T00:20:09.875Z,16.50
2022-12-19T00:22:43.619Z,16.90
2022-12-19T00:25:15.768Z,16.20
2022-12-19T00:27:48.052Z,16.73
2022-12-19T00:30:20.174Z,18.25
2022-12-19T00:32:52.843Z,17.52
2022-12-19T00:35:25.273Z,15.02
2022-12-19T00:37:57.673Z,16.05
2022-12-19T00:40:29.694Z,15.02
2022-12-19T00:43:01.715Z,15.20
2022-12-19T00:45:33.898Z,17.75
2022-12-19T00:48:06.297Z,15.85
2022-12-19T00:50:39.570Z,16.20
2022-12-19T00:53:11.587Z,15.57
2022-12-19T00:55:43.881Z,17.58
2022-12-19T00:58:15.856Z,18.10
2022-12-19T01:00:47.910Z,17.05
2022-12-19T01:03:19.986Z,19.23
2022-12-19T01:05:52.777Z,19.08
2022-12-19T01:08:25.966Z,20.42
2022-12-19T01:11:00.333Z,19.80
2022-12-19T01:13:34.230Z,19.88
2022-12-19T01:16:11.242Z,20.45
2022-12-19T01:18:43.936Z,20.38
2022-12-19T01:21:15.918Z,20.73
2022-12-19T01:23:47.896Z,21.48
2022-12-19T01:26:19.916Z,21.55
2022-12-19T01:28:51.969Z,22.15
2022-12-19T01:31:24.059Z,22.17
2022-12-19T01:33:56.078Z,21.38
2022-12-19T01:36:28.167Z,20.92
2022-12-19T01:39:00.254Z,21.80
2022-12-19T01:41:32.237Z,22.05
2022-12-19T01:44:06.917Z,23.25
2022-12-19T01:46:43.927Z,23.42
2022-12-19T01:49:37.041Z,22.92
2022-12-19T01:52:11.711Z,22.77
2022-12-19T01:54:51.963Z,23.08
2022-12-19T01:57:24.101Z,22.73
2022-12-19T02:00:00.262Z,25.80
2022-12-19T02:02:46.735Z,28.13
2022-12-19T02:05:19.021Z,27.50
2022-12-19T02:07:52.033Z,26.75
2022-12-19T02:10:24.095Z,22.42
2022-12-19T02:12:57.888Z,25.65
2022-12-19T02:15:37.249Z,23.65
2022-12-19T02:18:27.167Z,23.98
2022-12-19T02:21:17.973Z,26.23
2022-12-19T02:24:08.173Z,22.15
2022-12-19T02:26:58.791Z,23.02
2022-12-19T02:32:15.594Z,22.58
2022-12-19T02:34:53.449Z,23.52
2022-12-19T02:37:31.171Z,21.27
2022-12-19T02:40:09.870Z,20.92
2022-12-19T02:42:47.151Z,22.67
2022-12-19T02:45:28.643Z,20.15
2022-12-19T02:48:08.397Z,19.20
2022-12-19T02:50:46.857Z,20.05
2022-12-19T02:53:23.848Z,21.00
2022-12-19T02:56:19.741Z,21.40
2022-12-19T02:59:33.181Z,20.67
2022-12-19T03:02:18.633Z,20.02
2022-12-19T03:05:14.183Z,22.02
2022-12-19T03:08:16.760Z,21.27
2022-12-19T03:11:00.901Z,20.52
2022-12-19T03:13:37.242Z,19.88
2022-12-19T03:16:11.414Z,20.08
2022-12-19T03:18:44.448Z,21.25
2022-12-19T03:21:40.917Z,21.13
2022-12-19T03:24:14.735Z,20.75
2022-12-19T03:26:54.577Z,22.15
2022-12-19T03:29:46.097Z,20.85
2022-12-19T03:32:19.119Z,22.67
2022-12-19T03:35:08.198Z,27.35
2022-12-19T03:37:43.754Z,30.38
2022-12-19T03:40:21.872Z,32.13
2022-12-19T03:43:12.728Z,34.22
2022-12-19T03:46:09.582Z,33.50
2022-12-19T03:48:45.874Z,30.38
2022-12-19T03:51:29.982Z,28.88
2022-12-19T03:54:41.309Z,27.38
2022-12-19T03:57:40.210Z,26.30
2022-12-19T04:00:16.419Z,28.00
2022-12-19T04:02:52.633Z,28.13
2022-12-19T04:05:27.490Z,26.17
2022-12-19T04:08:05.167Z,25.33
2022-12-19T04:10:48.144Z,23.02
2022-12-19T04:13:45.226Z,22.80
2022-12-19T04:16:25.405Z,22.08
2022-12-19T04:19:03.749Z,22.52
2022-12-19T04:21:43.309Z,23.52
2022-12-19T04:24:24.393Z,22.30
2022-12-19T04:26:57.909Z,22.17
2022-12-19T04:29:33.484Z,21.52
2022-12-19T04:32:07.351Z,20.48
2022-12-19T04:34:42.890Z,21.58
2022-12-19T04:37:15.717Z,19.90
2022-12-19T04:39:47.737Z,20.35
2022-12-19T04:42:19.708Z,20.33
2022-12-19T04:44:51.702Z,21.38
2022-12-19T04:47:23.679Z,21.50
2022-12-19T04:49:55.674Z,21.65
2022-12-19T04:52:27.700Z,23.85
2022-12-19T04:54:59.743Z,21.50
2022-12-19T04:57:32.653Z,22.63
2022-12-19T05:00:07.513Z,23.98
2022-12-19T05:02:39.821Z,22.98
2022-12-19T05:05:12.326Z,22.90
2022-12-19T05:07:44.434Z,20.83
2022-12-19T05:10:18.525Z,22.40
2022-12-19T05:12:50.861Z,22.30
2022-12-19T05:15:23.860Z,21.27
2022-12-19T05:17:55.880Z,23.50
2022-12-19T05:20:28.203Z,22.50
2022-12-19T05:23:04.330Z,23.15
2022-12-19T05:25:37.807Z,23.08
2022-12-19T05:28:10.195Z,24.52
2022-12-19T05:30:43.960Z,28.52
2022-12-19T05:33:18.857Z,25.75
2022-12-19T05:35:50.871Z,25.70
2022-12-19T05:38:22.844Z,27.10
2022-12-19T05:40:55.482Z,29.00
2022-12-19T05:43:27.945Z,24.00
2022-12-19T05:45:59.937Z,22.52
2022-12-19T05:48:32.039Z,22.42
2022-12-19T05:51:04.728Z,23.42
2022-12-19T05:53:37.774Z,24.70
2022-12-19T05:56:12.861Z,23.75
2022-12-19T05:58:45.616Z,23.25
2022-12-19T06:01:23.263Z,23.48
2022-12-19T06:03:56.354Z,24.42
2022-12-19T06:06:28.495Z,24.45
2022-12-19T06:09:00.626Z,27.13
2022-12-19T06:11:32.690Z,24.73
2022-12-19T06:14:07.374Z,26.27
2022-12-19T06:16:39.495Z,24.38
2022-12-19T06:19:11.711Z,24.85
2022-12-19T06:21:48.207Z,23.85
2022-12-19T06:24:21.785Z,27.65
2022-12-19T06:26:53.832Z,29.20
2022-12-19T06:29:26.018Z,29.80
2022-12-19T06:31:58.065Z,30.17
2022-12-19T06:35:02.399Z,28.60
2022-12-19T06:37:22.111Z,27.60
2022-12-19T06:39:54.119Z,28.70
2022-12-19T06:42:26.197Z,31.05
2022-12-19T06:44:58.272Z,36.83
2022-12-19T06:47:30.253Z,34.03
2022-12-19T06:50:02.532Z,31.48
2022-12-19T06:52:34.486Z,30.00
2022-12-19T06:55:07.203Z,38.90
2022-12-19T06:57:46.153Z,41.17
2022-12-19T07:00:18.547Z,37.47
2022-12-19T07:02:52.681Z,29.70
2022-12-19T07:05:24.953Z,27.63
2022-12-19T07:07:56.908Z,27.27
2022-12-19T07:10:29.803Z,28.88
2022-12-19T07:13:02.343Z,29.42
2022-12-19T07:15:36.625Z,28.67
2022-12-19T07:18:10.315Z,28.38
2022-12-19T07:20:46.702Z,29.80
2022-12-19T07:23:22.660Z,32.88
2022-12-19T07:25:54.544Z,31.23
2022-12-19T07:28:26.951Z,27.02
2022-12-19T07:30:59.010Z,26.45
2022-12-19T07:33:31.089Z,27.10
2022-12-19T07:36:03.182Z,27.90
2022-12-19T07:38:37.022Z,35.70
2022-12-19T07:41:09.041Z,35.25
2022-12-19T07:43:41.064Z,40.67
2022-12-19T07:46:13.505Z,38.15
2022-12-19T07:48:45.544Z,33.33
2022-12-19T07:51:17.682Z,33.17
2022-12-19T07:53:49.804Z,34.53
2022-12-19T07:56:22.061Z,31.98
2022-12-19T07:58:54.318Z,30.73
2022-12-19T08:01:28.589Z,31.88
2022-12-19T08:04:01.451Z,29.73
2022-12-19T08:06:39.139Z,27.85
2022-12-19T08:09:14.001Z,29.20
2022-12-19T08:11:46.397Z,30.55
2022-12-19T08:14:18.381Z,29.70
2022-12-19T08:17:19.253Z,29.10
2022-12-19T08:19:42.337Z,28.92
2022-12-19T08:22:14.378Z,27.10
2022-12-19T08:24:46.452Z,29.63
2022-12-19T08:27:19.121Z,28.30
2022-12-19T08:29:51.427Z,31.90
2022-12-19T08:32:23.455Z,28.90
2022-12-19T08:34:56.998Z,30.10
2022-12-19T08:37:28.955Z,31.45
2022-12-19T08:40:00.969Z,29.38
2022-12-19T08:42:33.954Z,28.63
2022-12-19T08:45:06.660Z,25.92
2022-12-19T08:47:38.667Z,29.08
2022-12-19T08:50:11.515Z,27.92
2022-12-19T08:52:43.590Z,26.98
2022-12-19T08:55:15.850Z,28.55
2022-12-19T08:57:48.635Z,25.90
2022-12-19T09:00:21.368Z,27.88
2022-12-19T09:02:54.317Z,27.85
2022-12-19T09:06:03.515Z,27.67
2022-12-19T09:08:18.337Z,25.55
2022-12-19T09:10:50.531Z,24.23
2022-12-19T09:13:22.564Z,25.63
2022-12-19T09:16:10.980Z,26.05
2022-12-19T09:18:54.532Z,26.63
2022-12-19T09:21:30.273Z,28.25
2022-12-19T09:24:07.716Z,29.05
2022-12-19T09:26:42.609Z,25.23
2022-12-19T09:29:20.931Z,26.85
2022-12-19T09:31:56.401Z,25.77
2022-12-19T09:34:38.145Z,26.65
2022-12-19T09:37:16.927Z,28.48
2022-12-19T09:39:51.695Z,28.02
2022-12-19T09:42:56.938Z,41.70
2022-12-19T09:45:41.776Z,30.48
2022-12-19T09:48:24.088Z,29.38
2022-12-19T09:51:29.112Z,27.73
2022-12-19T09:54:11.908Z,26.50
2022-12-19T09:56:46.891Z,27.08
2022-12-19T09:59:39.760Z,25.58
2022-12-19T10:02:21.028Z,27.10
2022-12-19T10:05:06.587Z,26.05
2022-12-19T10:08:08.509Z,26.13
2022-12-19T10:12:40.779Z,26.00
2022-12-19T10:14:33.375Z,26.33
2022-12-19T10:17:29.644Z,24.75
2022-12-19T10:20:01.612Z,23.63
2022-12-19T10:22:56.137Z,25.75
2022-12-19T10:25:31.892Z,25.67
2022-12-19T10:28:45.562Z,24.55
2022-12-19T10:31:22.946Z,24.27
2022-12-19T10:34:16.571Z,24.23
2022-12-19T10:39:57.998Z,24.40
2022-12-19T10:42:44.384Z,24.73
2022-12-19T10:45:19.926Z,27.77
2022-12-19T10:47:58.270Z,25.27
2022-12-19T10:50:31.111Z,25.92
2022-12-19T10:53:08.711Z,24.55
2022-12-19T10:55:45.944Z,25.13
2022-12-19T10:58:38.135Z,24.80
2022-12-19T11:01:24.896Z,25.92
2022-12-19T11:04:17.810Z,24.80
2022-12-19T11:07:05.693Z,24.83
2022-12-19T11:09:41.948Z,24.77
2022-12-19T11:16:09.503Z,24.30
2022-12-19T11:19:45.314Z,24.20
2022-12-19T11:24:53.850Z,23.98
2022-12-19T11:29:19.663Z,24.63
2022-12-19T11:29:33.109Z,24.40
2022-12-19T11:30:48.179Z,24.70
2022-12-19T11:33:27.637Z,24.88
2022-12-19T11:36:02.089Z,27.38
2022-12-19T11:38:42.837Z,28.25
2022-12-19T11:41:29.609Z,28.10
2022-12-19T11:44:34.815Z,35.17
2022-12-19T11:47:32.878Z,28.50
2022-12-19T11:50:15.842Z,26.52
2022-12-19T11:53:14.668Z,27.48
2022-12-19T11:55:56.274Z,25.15
2022-12-19T11:58:30.269Z,24.98
2022-12-19T12:01:23.986Z,24.88
2022-12-19T12:04:05.462Z,26.10
2022-12-19T12:06:50.923Z,26.50
2022-12-19T12:12:39.365Z,25.52
2022-12-19T12:21:39.530Z,24.98
2022-12-19T12:28:20.920Z,26.05
2022-12-19T12:31:05.842Z,25.48
2022-12-19T12:31:06.473Z,24.02
2022-12-19T12:31:54.114Z,22.63
2022-12-19T12:32:06.314Z,24.40
2022-12-19T12:35:19.235Z,25.33
2022-12-19T12:38:36.071Z,25.75
2022-12-19T12:41:44.494Z,24.73
2022-12-19T12:44:16.604Z,23.67
2022-12-19T12:47:00.110Z,23.67
2022-12-19T12:49:46.618Z,23.67
2022-12-19T12:52:42.317Z,24.02
2022-12-19T12:55:40.642Z,22.35
2022-12-19T12:58:50.941Z,24.38
2022-12-19T13:01:29.250Z,25.48
2022-12-19T13:04:21.948Z,27.48
2022-12-19T13:06:53.970Z,26.40
2022-12-19T13:09:32.356Z,25.58
2022-12-19T13:12:42.892Z,25.88
2022-12-19T13:15:31.804Z,25.00
2022-12-19T13:18:16.020Z,24.30
2022-12-19T13:20:49.011Z,23.13
2022-12-19T13:23:30.106Z,26.77
2022-12-19T13:26:02.387Z,23.63
2022-12-19T13:28:34.345Z,25.90
2022-12-19T13:31:19.065Z,28.30
2022-12-19T13:33:55.949Z,28.58
2022-12-19T13:39:52.340Z,26.90
2022-12-19T13:40:08.739Z,26.15
2022-12-19T13:43:30.624Z,24.58
2022-12-19T13:46:06.149Z,29.83
2022-12-19T13:48:46.821Z,31.45
2022-12-19T13:51:18.822Z,32.22
2022-12-19T13:53:59.287Z,31.33
2022-12-19T13:56:32.255Z,34.03
2022-12-19T13:59:05.771Z,35.05
2022-12-19T14:01:41.101Z,33.97
2022-12-19T14:04:26.858Z,30.48
2022-12-19T14:07:05.770Z,29.23
2022-12-19T14:11:26.468Z,30.02
2022-12-19T14:13:46.190Z,27.27
2022-12-19T14:15:52.454Z,27.63
2022-12-19T14:18:42.253Z,27.77
2022-12-19T14:22:08.687Z,26.35
2022-12-19T14:24:17.860Z,27.10
2022-12-19T14:28:24.151Z,29.33
2022-12-19T14:30:30.636Z,33.47
2022-12-19T14:33:44.637Z,30.40
2022-12-19T14:36:07.423Z,33.38
2022-12-19T14:39:24.040Z,32.22
2022-12-19T14:42:04.284Z,29.92
2022-12-19T14:53:17.916Z,32.72
2022-12-19T14:53:27.802Z,34.55
2022-12-19T14:54:29.347Z,34.90
2022-12-19T14:54:37.409Z,33.67
2022-12-19T14:59:35.760Z,31.88
2022-12-19T15:02:07.864Z,28.98
2022-12-19T15:04:54.671Z,29.83
2022-12-19T15:07:33.501Z,32.60
2022-12-19T15:11:09.162Z,33.35
2022-12-19T15:14:54.259Z,30.80
2022-12-19T15:16:29.234Z,31.25
2022-12-19T15:19:02.801Z,34.67
2022-12-19T15:21:34.701Z,34.63
2022-12-19T15:24:06.693Z,47.95
2022-12-19T15:26:50.524Z,37.42
2022-12-19T15:29:22.652Z,48.15
2022-12-19T15:31:55.746Z,36.05
2022-12-19T15:34:36.333Z,33.80
2022-12-19T15:37:17.105Z,33.85
2022-12-19T15:39:49.091Z,36.15
2022-12-19T15:42:25.240Z,31.67
2022-12-19T15:45:00.219Z,31.08
2022-12-19T15:47:37.493Z,32.22
2022-12-19T15:50:29.669Z,30.15
2022-12-19T15:53:26.903Z,29.70
2022-12-19T15:56:25.019Z,28.77
2022-12-19T15:58:59.559Z,29.02
2022-12-19T16:01:36.505Z,30.42
2022-12-19T16:04:18.003Z,31.02
2022-12-19T16:06:54.076Z,29.42
2022-12-19T16:09:28.149Z,30.08
2022-12-19T16:12:00.721Z,32.40
2022-12-19T16:14:32.969Z,32.40
2022-12-19T16:17:12.351Z,31.00
2022-12-19T16:19:46.614Z,31.15
2022-12-19T16:22:28.929Z,32.80
2022-12-19T16:25:00.969Z,32.10
2022-12-19T16:27:37.344Z,30.17
2022-12-19T16:30:20.074Z,27.85
2022-12-19T16:32:56.101Z,28.98
2022-12-19T16:36:03.118Z,30.10
2022-12-19T16:38:24.146Z,28.45
2022-12-19T16:41:00.579Z,30.33
2022-12-19T16:43:41.091Z,28.85
2022-12-19T16:48:50.178Z,28.45
2022-12-19T16:51:24.844Z,27.65
2022-12-19T16:54:00.761Z,29.50
2022-12-19T16:56:45.363Z,27.98
2022-12-19T16:59:25.295Z,28.10
2022-12-19T17:01:59.386Z,28.58
2022-12-19T17:04:31.522Z,28.83
2022-12-19T17:07:10.957Z,28.98
2022-12-19T17:09:43.328Z,27.75
2022-12-19T17:12:18.645Z,28.52
2022-12-19T17:14:50.806Z,28.45
2022-12-19T17:17:22.930Z,28.67
2022-12-19T17:19:54.961Z,29.35
2022-12-19T17:22:27.004Z,31.10
2022-12-19T17:24:59.037Z,30.90
2022-12-19T17:27:31.613Z,30.52
2022-12-19T17:30:03.825Z,30.17
2022-12-19T17:32:36.414Z,35.53
2022-12-19T17:35:16.246Z,31.40
2022-12-19T17:37:55.044Z,30.15
2022-12-19T17:40:29.838Z,31.35
2022-12-19T17:43:02.021Z,31.17
2022-12-19T17:45:34.948Z,29.90
2022-12-19T17:48:16.235Z,32.20
2022-12-19T17:50:48.453Z,31.85
2022-12-19T17:53:20.736Z,30.85
2022-12-19T17:55:53.409Z,32.65
2022-12-19T17:58:25.666Z,33.78
2022-12-19T18:00:57.732Z,32.47
2022-12-19T18:03:30.440Z,32.10
2022-12-19T18:06:05.986Z,31.38
2022-12-19T18:08:40.697Z,32.08
2022-12-19T18:11:24.620Z,32.47
2022-12-19T18:13:56.599Z,31.38
2022-12-19T18:16:31.170Z,32.10
2022-12-19T18:19:05.136Z,32.40
2022-12-19T18:21:37.169Z,30.42
2022-12-19T18:24:12.375Z,33.33
2022-12-19T18:26:45.411Z,32.72
2022-12-19T18:29:17.468Z,30.92
2022-12-19T18:31:51.090Z,32.05
2022-12-19T18:34:25.774Z,32.08
2022-12-19T18:36:57.823Z,31.45
2022-12-19T18:39:31.097Z,31.85
2022-12-19T18:42:08.613Z,33.55
2022-12-19T18:44:40.574Z,38.35
2022-12-19T18:47:23.734Z,32.60
2022-12-19T18:49:55.809Z,32.38
2022-12-19T18:52:27.751Z,30.90
2022-12-19T18:54:59.825Z,31.17
2022-12-19T18:57:31.813Z,31.52
2022-12-19T19:00:04.321Z,33.70
2022-12-19T19:02:36.643Z,31.98
2022-12-19T19:05:14.883Z,31.30
2022-12-19T19:07:47.828Z,31.58
2022-12-19T19:10:28.857Z,32.10
2022-12-19T19:13:05.178Z,34.60
2022-12-19T19:15:48.133Z,31.48
2022-12-19T19:18:23.074Z,33.78
2022-12-19T19:21:00.787Z,33.08
2022-12-19T19:23:38.614Z,32.55
2022-12-19T19:26:10.649Z,32.17
2022-12-19T19:28:45.951Z,29.13
2022-12-19T19:31:26.916Z,31.50
2022-12-19T19:34:22.264Z,31.38
2022-12-19T19:36:56.634Z,29.33
2022-12-19T19:39:32.050Z,30.25
2022-12-19T19:42:04.263Z,32.30
2022-12-19T19:44:37.352Z,31.67
2022-12-19T19:47:09.394Z,30.02
2022-12-19T19:49:41.656Z,30.50
2022-12-19T19:52:13.592Z,31.00
2022-12-19T19:54:46.119Z,30.55
2022-12-19T19:57:18.124Z,31.10
2022-12-19T19:59:50.124Z,29.60
2022-12-19T20:02:22.730Z,30.15
2022-12-19T20:04:54.853Z,30.35
2022-12-19T20:07:27.221Z,28.85
2022-12-19T20:09:59.367Z,28.45
2022-12-19T20:12:31.688Z,30.95
2022-12-19T20:15:04.786Z,28.45
2022-12-19T20:17:37.083Z,29.95
2022-12-19T20:20:09.545Z,30.30
2022-12-19T20:22:42.877Z,31.45
2022-12-19T20:25:15.046Z,31.38
2022-12-19T20:27:47.060Z,34.70
2022-12-19T20:30:19.224Z,35.25
2022-12-19T20:32:51.236Z,34.75
2022-12-19T20:35:24.180Z,42.25
2022-12-19T20:37:56.336Z,35.67
2022-12-19T20:40:28.543Z,33.42
2022-12-19T20:43:00.520Z,35.72
2022-12-19T20:45:32.764Z,34.53
2022-12-19T20:48:04.874Z,34.10
2022-12-19T20:50:42.893Z,33.17
2022-12-19T20:53:15.524Z,29.90
2022-12-19T20:55:58.136Z,32.58
2022-12-19T20:58:33.388Z,30.65
2022-12-19T21:01:08.945Z,32.08
2022-12-19T21:03:41.738Z,32.70
2022-12-19T21:06:15.502Z,29.75
2022-12-19T21:08:49.053Z,32.63
2022-12-19T21:11:21.715Z,31.83
2022-12-19T21:13:53.972Z,34.58
2022-12-19T21:16:26.154Z,32.67
2022-12-19T21:18:58.429Z,29.80
2022-12-19T21:21:30.676Z,28.90
2022-12-19T21:24:03.606Z,31.05
2022-12-19T21:26:35.769Z,31.02
2022-12-19T21:29:07.880Z,30.27
2022-12-19T21:31:43.214Z,30.73
2022-12-19T21:34:15.341Z,29.90
2022-12-19T21:36:47.487Z,32.22
2022-12-19T21:39:21.005Z,30.92
2022-12-19T21:41:53.214Z,32.58
2022-12-19T21:44:25.233Z,31.35
2022-12-19T21:46:57.295Z,29.95
2022-12-19T21:49:29.410Z,34.30
2022-12-19T21:52:01.496Z,30.88
2022-12-19T21:54:33.494Z,33.83
2022-12-19T21:57:05.615Z,33.65
2022-12-19T21:59:37.655Z,34.92
2022-12-19T22:02:11.154Z,32.58
2022-12-19T22:04:43.133Z,31.75
2022-12-19T22:07:15.736Z,29.52
2022-12-19T22:09:47.703Z,29.95
2022-12-19T22:12:19.882Z,30.77
2022-12-19T22:14:52.060Z,34.28
2022-12-19T22:17:24.045Z,33.53
2022-12-19T22:19:56.126Z,31.42
2022-12-19T22:22:28.105Z,32.38
2022-12-19T22:25:00.142Z,30.33
2022-12-19T22:27:32.159Z,31.27
2022-12-19T22:30:10.689Z,31.08
2022-12-19T22:32:43.261Z,30.45
2022-12-19T22:35:15.408Z,30.90
2022-12-19T22:37:50.677Z,30.30
2022-12-19T22:40:22.839Z,31.73
2022-12-19T22:42:55.045Z,29.80
2022-12-19T22:45:30.800Z,30.17
2022-12-19T22:48:02.961Z,30.88
2022-12-19T22:50:35.108Z,32.35
2022-12-19T22:53:12.600Z,31.50
2022-12-19T22:55:44.975Z,34.90
2022-12-19T22:58:16.982Z,29.75
2022-12-19T23:00:49.936Z,31.77
2022-12-19T23:03:22.163Z,30.27
2022-12-19T23:05:55.049Z,29.95
2022-12-19T23:08:27.017Z,31.95
2022-12-19T23:10:59.024Z,32.95
2022-12-19T23:13:30.993Z,32.20
2022-12-19T23:16:03.121Z,31.13
2022-12-19T23:18:35.574Z,32.58
2022-12-19T23:21:19.289Z,32.20
2022-12-19T23:23:54.080Z,30.92
2022-12-19T23:26:29.235Z,33.13
2022-12-19T23:29:09.750Z,31.45
2022-12-19T23:31:44.476Z,30.30
2022-12-19T23:34:17.008Z,31.63
2022-12-19T23:39:42.328Z,31.17
2022-12-19T23:42:14.295Z,33.28
2022-12-19T23:44:46.264Z,34.80
2022-12-19T23:47:18.217Z,32.17
2022-12-19T23:49:50.179Z,33.42
2022-12-19T23:52:22.178Z,31.63
2022-12-19T23:54:54.211Z,30.55
2022-12-19T23:57:26.186Z,30.45
2022-12-19T23:59:58.093Z,33.13
